Carlton, Louisiana
Current Conditions -  °F | °C
As of 3:55 PM on Thursday 27 Nov 2014 (Local Time) from KRSN Reporting Station
Clear Clear  
Wind Chill: 12°   Ceiling: Unl
Heat Index: 12°   Visibility: 10mi
Dew Point: -2°   Wind: 5mph
Humidity: 40%   Direction: 60°ENE
Pressure: 30.49"   Gusts: NA
Location:  32.5064°N, 92.3457°W
Report Text: KRSN 272155Z AUTO 06004KT 10SM CLR 12/M02 A3049 RMK AO2 T01171016
Loading
Personal Weather Stations






























Interactive Weather Map New forecast layout! Learn more

10-Day Weather Forecast

Advertisements
Track Severe Weather on mobile